Time;durP1;ratioP1;P1;durP2;ratioP2;P2;SDS_P1;SDS_P2;PMS_P1;PMS_P2;Temp;Humidity;BMP_temperature;BMP_pressure;BME280_temperature;BME280_humidity;BME280_pressure;Samples;Min_cycle;Max_cycle;Signal;HPM_P1;HPM_P2
2023/07/31 00:01:29;;;;;;;2.30;2.10;;;18.40;99.90;;;;;;4975484;28;20546;-84
2023/07/31 00:03:56;;;;;;;5.13;2.17;;;18.40;99.90;;;;;;4968264;28;20494;-85
2023/07/31 00:06:23;;;;;;;4.40;2.37;;;18.40;99.90;;;;;;4972726;28;20562;-86
2023/07/31 00:08:50;;;;;;;2.47;1.70;;;18.30;99.90;;;;;;4970082;28;20479;-86
2023/07/31 00:11:17;;;;;;;2.63;2.20;;;18.30;99.90;;;;;;4978302;28;20454;-84
2023/07/31 00:13:44;;;;;;;5.90;2.90;;;18.30;99.90;;;;;;4975348;28;20471;-85
2023/07/31 00:16:11;;;;;;;3.10;1.80;;;18.30;99.90;;;;;;4974422;28;20475;-84
2023/07/31 00:18:40;;;;;;;4.17;2.20;;;18.30;99.90;;;;;;4974618;28;20470;-85
2023/07/31 00:21:07;;;;;;;2.97;2.07;;;18.30;99.90;;;;;;4974509;28;20471;-85
2023/07/31 00:23:33;;;;;;;3.17;2.23;;;18.20;99.90;;;;;;4975418;28;20549;-84
2023/07/31 00:26:00;;;;;;;2.53;2.33;;;18.20;99.90;;;;;;4974603;28;20491;-85
2023/07/31 00:28:36;;;;;;;19.90;17.30;;;18.20;99.90;;;;;;4973130;28;20534;-83
2023/07/31 00:31:03;;;;;;;4.40;2.70;;;18.20;99.90;;;;;;4962216;28;20570;-84
2023/07/31 00:33:32;;;;;;;2.27;2.07;;;18.20;99.90;;;;;;4972673;28;20485;-84
2023/07/31 00:36:00;;;;;;;4.87;2.60;;;18.10;99.90;;;;;;4973024;28;20478;-84
2023/07/31 00:38:27;;;;;;;5.87;2.53;;;18.10;99.90;;;;;;4972396;28;21018;-86
2023/07/31 00:40:54;;;;;;;3.53;1.93;;;18.20;99.90;;;;;;4972650;28;21043;-86
2023/07/31 00:43:21;;;;;;;5.40;2.53;;;18.20;99.90;;;;;;4972748;28;21023;-86
2023/07/31 00:45:48;;;;;;;3.37;2.20;;;18.20;99.90;;;;;;4974415;28;20502;-86
2023/07/31 00:48:15;;;;;;;2.43;2.20;;;18.10;99.90;;;;;;4974193;28;20510;-86
2023/07/31 00:50:42;;;;;;;2.43;1.80;;;18.20;99.90;;;;;;4974371;28;20812;-86
2023/07/31 00:53:11;;;;;;;3.00;2.00;;;18.20;99.90;;;;;;4973781;28;20554;-85
2023/07/31 00:55:38;;;;;;;9.10;2.80;;;18.20;99.90;;;;;;4974534;28;20470;-84
2023/07/31 00:58:04;;;;;;;5.60;3.40;;;18.20;99.90;;;;;;4974602;28;20506;-85
2023/07/31 01:00:41;;;;;;;2.97;2.77;;;18.20;99.90;;;;;;4974262;28;20482;-84
2023/07/31 01:03:08;;;;;;;2.83;2.53;;;18.20;99.90;;;;;;4973569;28;20478;-84
2023/07/31 01:05:47;;;;;;;2.87;2.60;;;18.20;99.90;;;;;;4973240;28;20494;-85
2023/07/31 01:08:24;;;;;;;2.47;2.27;;;18.20;99.90;;;;;;4963349;28;20494;-86
2023/07/31 01:10:57;;;;;;;1.60;1.50;;;18.20;99.90;;;;;;4974260;28;20577;-86
2023/07/31 01:13:26;;;;;;;4.93;2.13;;;18.30;99.90;;;;;;4974431;28;20475;-86
2023/07/31 01:15:53;;;;;;;3.33;2.77;;;18.20;99.90;;;;;;4974327;28;20813;-86
2023/07/31 01:18:20;;;;;;;3.07;2.73;;;18.30;99.90;;;;;;4974097;28;20578;-85
2023/07/31 01:20:52;;;;;;;2.30;2.10;;;18.30;99.90;;;;;;4977265;28;20471;-84
2023/07/31 01:23:48;;;;;;;3.97;2.63;;;18.40;99.90;;;;;;4977667;28;20470;-84
2023/07/31 01:26:20;;;;;;;4.10;1.97;;;18.40;99.90;;;;;;4976523;28;20961;-84
2023/07/31 01:28:56;;;;;;;3.80;1.73;;;18.40;99.90;;;;;;4978725;28;20547;-86
2023/07/31 01:31:27;;;;;;;3.43;2.60;;;18.40;99.90;;;;;;4977972;28;20467;-86
2023/07/31 01:33:57;;;;;;;3.33;2.53;;;18.40;99.90;;;;;;4978118;28;20482;-86
2023/07/31 01:36:27;;;;;;;4.10;2.40;;;18.40;99.90;;;;;;4977562;28;20479;-86
2023/07/31 01:38:59;;;;;;;3.67;2.50;;;18.40;99.90;;;;;;4978796;28;20495;-85
2023/07/31 01:41:27;;;;;;;2.57;2.37;;;18.40;99.90;;;;;;4977744;28;20562;-86
2023/07/31 01:43:54;;;;;;;2.03;1.90;;;18.40;99.90;;;;;;4978574;28;20502;-84
2023/07/31 01:46:21;;;;;;;2.30;2.10;;;18.40;99.90;;;;;;4977314;28;21019;-84
2023/07/31 01:48:48;;;;;;;2.57;2.20;;;18.40;99.90;;;;;;4977605;28;20470;-84
2023/07/31 01:51:15;;;;;;;2.60;2.40;;;18.40;99.90;;;;;;4977342;28;20478;-85
2023/07/31 01:53:42;;;;;;;2.80;2.50;;;18.40;99.90;;;;;;4977778;28;20473;-85
2023/07/31 01:56:12;;;;;;;2.60;2.30;;;18.40;99.90;;;;;;4967535;28;20481;-85
2023/07/31 01:58:40;;;;;;;2.87;2.20;;;18.40;99.90;;;;;;4977434;28;20538;-85
2023/07/31 02:01:09;;;;;;;2.60;2.10;;;18.40;99.90;;;;;;4977060;28;20557;-86
2023/07/31 02:03:36;;;;;;;2.60;2.40;;;18.50;99.90;;;;;;4977369;28;20470;-85
2023/07/31 02:06:03;;;;;;;2.50;2.00;;;18.50;99.90;;;;;;4977773;28;20570;-86
2023/07/31 02:08:30;;;;;;;3.30;3.00;;;18.50;99.90;;;;;;4977279;28;20868;-86
2023/07/31 02:10:57;;;;;;;2.40;2.20;;;18.50;99.90;;;;;;4977749;28;20470;-86
2023/07/31 02:13:24;;;;;;;4.40;2.80;;;18.50;99.90;;;;;;4976945;28;20530;-86
2023/07/31 02:15:52;;;;;;;3.70;2.67;;;18.50;99.90;;;;;;4977351;28;20541;-86
2023/07/31 02:18:19;;;;;;;4.57;3.00;;;18.50;99.90;;;;;;4976191;28;20557;-84
2023/07/31 02:20:50;;;;;;;3.73;2.70;;;18.50;99.90;;;;;;4977287;28;20466;-85
2023/07/31 02:23:17;;;;;;;2.33;2.13;;;18.50;99.90;;;;;;4977544;28;20950;-85
2023/07/31 02:25:44;;;;;;;2.37;2.17;;;18.50;99.90;;;;;;4976531;28;20932;-84
2023/07/31 02:28:12;;;;;;;4.93;3.07;;;18.50;99.90;;;;;;4977246;28;20471;-84
2023/07/31 02:30:37;;;;;;;2.97;2.47;;;18.50;99.90;;;;;;4966382;28;20510;-84
2023/07/31 02:33:06;;;;;;;3.20;2.43;;;18.50;99.90;;;;;;4976323;28;20502;-85
2023/07/31 02:35:33;;;;;;;2.97;2.43;;;18.40;99.90;;;;;;4976408;28;20509;-84
2023/07/31 02:38:00;;;;;;;2.60;2.40;;;18.50;99.90;;;;;;4976364;28;20481;-84
2023/07/31 02:40:27;;;;;;;3.67;3.37;;;18.50;99.90;;;;;;4976644;28;20845;-86
2023/07/31 02:42:54;;;;;;;3.83;2.93;;;18.50;99.90;;;;;;4977511;28;20542;-86
2023/07/31 02:45:21;;;;;;;3.23;2.87;;;18.50;99.90;;;;;;4977204;28;20543;-84
2023/07/31 02:47:48;;;;;;;3.10;2.60;;;18.50;99.90;;;;;;4976023;28;20861;-85
2023/07/31 02:50:16;;;;;;;3.43;2.90;;;18.50;99.90;;;;;;4976590;28;20570;-85
2023/07/31 02:52:43;;;;;;;2.90;2.07;;;18.50;99.90;;;;;;4976433;28;20537;-84
2023/07/31 02:55:10;;;;;;;2.70;2.50;;;18.50;99.90;;;;;;4976790;28;20820;-85
2023/07/31 02:57:37;;;;;;;3.90;2.83;;;18.50;99.90;;;;;;4975553;28;20968;-85
2023/07/31 03:00:06;;;;;;;2.70;2.50;;;18.50;99.90;;;;;;4976486;28;20471;-86
2023/07/31 03:02:33;;;;;;;3.83;3.17;;;18.50;99.90;;;;;;4976142;28;20884;-86
2023/07/31 03:05:00;;;;;;;3.77;2.90;;;18.50;99.90;;;;;;4976086;28;20477;-85
2023/07/31 03:07:30;;;;;;;3.77;2.50;;;18.50;99.90;;;;;;4975886;28;20471;-84
2023/07/31 03:09:57;;;;;;;2.87;2.57;;;18.60;99.90;;;;;;4976539;28;20475;-85
2023/07/31 03:12:24;;;;;;;6.13;2.93;;;18.50;99.90;;;;;;4976581;28;21071;-86
2023/07/31 03:14:53;;;;;;;4.20;3.30;;;18.50;99.90;;;;;;4975563;28;20866;-84
2023/07/31 03:17:20;;;;;;;3.77;3.13;;;18.60;99.90;;;;;;4976250;28;20566;-84
2023/07/31 03:19:47;;;;;;;3.30;3.03;;;18.50;99.90;;;;;;4965286;28;20475;-85
2023/07/31 03:22:14;;;;;;;4.43;3.20;;;18.60;99.90;;;;;;4976235;28;20510;-84
2023/07/31 03:24:42;;;;;;;5.13;3.80;;;18.60;99.90;;;;;;4975465;28;20885;-85
2023/07/31 03:27:09;;;;;;;4.70;3.07;;;18.60;99.90;;;;;;4976018;28;20546;-84
2023/07/31 03:29:36;;;;;;;4.27;3.03;;;18.60;99.90;;;;;;4975713;28;20488;-86
2023/07/31 03:32:04;;;;;;;4.13;3.57;;;18.60;99.90;;;;;;4975927;28;20807;-86
2023/07/31 03:34:31;;;;;;;5.47;3.57;;;18.60;99.90;;;;;;4975205;28;20511;-84
2023/07/31 03:36:58;;;;;;;4.40;3.47;;;18.50;99.90;;;;;;4976070;28;20549;-86
2023/07/31 03:39:25;;;;;;;5.60;4.97;;;18.50;99.90;;;;;;4975613;28;20957;-86
2023/07/31 03:41:54;;;;;;;3.80;3.50;;;18.50;99.90;;;;;;4975279;28;20463;-86
2023/07/31 03:44:20;;;;;;;4.37;3.70;;;18.50;99.90;;;;;;4975746;28;20844;-84
2023/07/31 03:46:47;;;;;;;3.70;3.10;;;18.50;99.90;;;;;;4975045;28;20482;-84
2023/07/31 03:49:14;;;;;;;6.63;3.80;;;18.50;99.90;;;;;;4975659;28;20562;-84
2023/07/31 03:51:41;;;;;;;5.13;3.57;;;18.40;99.90;;;;;;4975248;28;20471;-84
2023/07/31 03:54:08;;;;;;;4.53;3.63;;;18.40;99.90;;;;;;4975556;28;20478;-86
2023/07/31 03:56:35;;;;;;;7.07;3.63;;;18.40;99.90;;;;;;4974842;28;20491;-86
2023/07/31 03:59:03;;;;;;;4.03;3.73;;;18.40;99.90;;;;;;4975929;28;20534;-84
2023/07/31 04:01:31;;;;;;;4.67;3.87;;;18.40;99.90;;;;;;4975230;28;20479;-86
2023/07/31 04:06:38;;;;;;;5.83;3.80;;;18.40;99.90;;;;;;4972844;28;20474;-85
2023/07/31 04:09:05;;;;;;;6.40;4.40;;;18.40;99.90;;;;;;4975351;28;20549;-83
2023/07/31 04:11:35;;;;;;;4.23;3.90;;;18.40;99.90;;;;;;4975235;28;20984;-83
2023/07/31 04:14:03;;;;;;;6.57;4.90;;;18.40;99.90;;;;;;4974958;28;20518;-84
2023/07/31 04:16:30;;;;;;;3.73;3.40;;;18.40;99.90;;;;;;4974931;28;21061;-84
2023/07/31 04:18:58;;;;;;;7.03;4.60;;;18.40;99.90;;;;;;4974408;28;21035;-83
2023/07/31 04:21:25;;;;;;;4.90;3.80;;;18.40;99.90;;;;;;4975479;28;21028;-85
2023/07/31 04:23:56;;;;;;;6.70;3.80;;;18.40;99.90;;;;;;4974031;28;22265;-85
2023/07/31 04:26:23;;;;;;;4.43;3.90;;;18.40;99.90;;;;;;4975091;28;20489;-84
2023/07/31 04:28:50;;;;;;;3.97;3.67;;;18.40;99.90;;;;;;4974864;28;20547;-83
2023/07/31 04:31:18;;;;;;;4.27;3.40;;;18.40;99.90;;;;;;4975000;28;20475;-83
2023/07/31 04:33:45;;;;;;;5.27;3.50;;;18.40;99.90;;;;;;4974202;28;20864;-84
2023/07/31 04:36:12;;;;;;;6.63;3.43;;;18.40;99.90;;;;;;4975230;28;20500;-85
2023/07/31 04:38:39;;;;;;;7.57;4.50;;;18.40;99.90;;;;;;4975016;28;20478;-84
2023/07/31 04:41:05;;;;;;;4.47;4.07;;;18.40;99.90;;;;;;4964005;28;20487;-85
2023/07/31 04:43:38;;;;;;;5.83;4.10;;;18.40;99.90;;;;;;4964023;28;20519;-84
2023/07/31 04:46:05;;;;;;;7.07;3.83;;;18.40;99.90;;;;;;4973915;28;20505;-85
2023/07/31 04:48:33;;;;;;;4.73;3.73;;;18.40;99.90;;;;;;4974985;28;20475;-84
2023/07/31 04:51:00;;;;;;;6.27;4.20;;;18.40;99.90;;;;;;4974460;28;20558;-85
2023/07/31 04:53:27;;;;;;;4.40;3.87;;;18.40;99.90;;;;;;4975200;28;20466;-85
2023/07/31 04:55:54;;;;;;;3.70;3.40;;;18.40;99.90;;;;;;4974116;28;20467;-85
2023/07/31 04:58:21;;;;;;;6.03;3.70;;;18.40;99.90;;;;;;4974604;28;20574;-84
2023/07/31 05:00:48;;;;;;;4.73;4.03;;;18.40;99.90;;;;;;4975772;28;20561;-83
2023/07/31 05:03:15;;;;;;;7.37;4.30;;;18.40;99.90;;;;;;4975144;28;20479;-84
2023/07/31 05:05:44;;;;;;;3.50;3.30;;;18.40;99.90;;;;;;4974877;28;20538;-86
2023/07/31 05:08:11;;;;;;;4.53;4.13;;;18.50;99.90;;;;;;4975096;28;20543;-85
2023/07/31 05:10:38;;;;;;;4.97;3.60;;;18.50;99.90;;;;;;4975794;28;20539;-86
2023/07/31 05:13:05;;;;;;;4.10;3.70;;;18.50;99.90;;;;;;4975301;28;20542;-86
2023/07/31 05:15:32;;;;;;;3.50;3.20;;;18.50;99.90;;;;;;4975722;28;20550;-86
2023/07/31 05:17:59;;;;;;;4.83;3.33;;;18.50;99.90;;;;;;4975134;28;20521;-85
2023/07/31 05:20:27;;;;;;;5.47;4.33;;;18.60;99.90;;;;;;4975854;28;20555;-84
2023/07/31 05:22:55;;;;;;;5.80;3.40;;;18.60;99.90;;;;;;4975144;28;20952;-86
2023/07/31 05:25:22;;;;;;;3.70;3.47;;;18.60;99.90;;;;;;4975894;28;20550;-84
2023/07/31 05:27:49;;;;;;;4.00;3.70;;;18.60;99.90;;;;;;4975427;28;20474;-85
2023/07/31 05:30:16;;;;;;;4.03;3.63;;;18.70;99.90;;;;;;4971763;28;20530;-84
2023/07/31 05:32:43;;;;;;;6.17;4.00;;;18.70;99.90;;;;;;4975164;28;20575;-84
2023/07/31 05:35:10;;;;;;;4.60;3.83;;;18.70;99.90;;;;;;4975031;28;20566;-84
2023/07/31 05:37:37;;;;;;;4.60;3.80;;;18.70;99.90;;;;;;4975354;28;20471;-86
2023/07/31 05:40:07;;;;;;;5.43;4.07;;;18.80;99.90;;;;;;4974483;28;20471;-86
2023/07/31 05:42:35;;;;;;;4.80;3.50;;;18.80;99.90;;;;;;4975658;28;20466;-86
2023/07/31 05:45:02;;;;;;;4.23;3.83;;;18.80;99.90;;;;;;4974214;28;20482;-86
2023/07/31 05:47:29;;;;;;;10.57;4.30;;;18.80;99.90;;;;;;4975532;28;20501;-86
2023/07/31 05:50:00;;;;;;;7.30;5.67;;;18.80;99.90;;;;;;4974296;28;20503;-86
2023/07/31 05:52:33;;;;;;;5.50;4.80;;;18.80;99.90;;;;;;4971159;28;20467;-85
2023/07/31 05:55:00;;;;;;;6.73;6.03;;;18.80;99.90;;;;;;4956677;28;20483;-85
2023/07/31 05:57:28;;;;;;;5.03;4.00;;;18.80;99.90;;;;;;4974859;28;20475;-84
2023/07/31 05:59:58;;;;;;;7.10;4.23;;;18.80;99.90;;;;;;4989599;28;20475;-85
2023/07/31 06:02:25;;;;;;;6.70;3.50;;;18.90;99.90;;;;;;4991169;28;20501;-85
2023/07/31 06:04:52;;;;;;;5.17;3.37;;;18.90;99.90;;;;;;4988799;28;20475;-84
2023/07/31 06:07:19;;;;;;;7.00;3.70;;;18.90;99.90;;;;;;4985223;28;20467;-84
2023/07/31 06:09:46;;;;;;;3.10;2.87;;;18.90;99.90;;;;;;4982766;28;20475;-84
2023/07/31 06:12:17;;;;;;;3.90;3.53;;;18.80;99.90;;;;;;4977302;28;20518;-83
2023/07/31 06:14:49;;;;;;;13.93;4.27;;;18.90;99.90;;;;;;4976720;28;20516;-83
2023/07/31 06:17:18;;;;;;;3.43;3.13;;;18.90;99.90;;;;;;4966572;28;20474;-84
2023/07/31 06:19:45;;;;;;;4.07;2.97;;;18.90;99.90;;;;;;4968534;28;20482;-84
2023/07/31 06:22:14;;;;;;;3.50;3.20;;;18.90;99.90;;;;;;4976961;28;20531;-85
2023/07/31 06:24:44;;;;;;;3.77;2.97;;;18.90;99.90;;;;;;4977450;28;20478;-83
2023/07/31 06:30:26;;;;;;;6.10;3.07;;;18.90;99.90;;;;;;4974890;28;20458;-84
2023/07/31 06:32:53;;;;;;;3.40;2.80;;;18.90;99.90;;;;;;4976604;28;20470;-85
2023/07/31 06:35:22;;;;;;;4.90;3.10;;;18.90;99.90;;;;;;4965704;28;20483;-84
2023/07/31 06:37:49;;;;;;;3.23;3.00;;;18.90;99.90;;;;;;4976891;28;20973;-86
2023/07/31 06:40:37;;;;;;;5.10;3.63;;;18.90;99.90;;;;;;4971669;28;20474;-86
2023/07/31 06:43:07;;;;;;;4.73;3.57;;;18.90;99.90;;;;;;4963328;28;20505;-85
2023/07/31 06:45:36;;;;;;;3.10;2.80;;;18.90;99.90;;;;;;4976701;28;20467;-85
2023/07/31 06:48:04;;;;;;;3.20;2.50;;;19.00;99.90;;;;;;4976496;28;20485;-84
2023/07/31 06:50:33;;;;;;;3.53;2.93;;;19.00;99.90;;;;;;4977131;28;20550;-83
2023/07/31 06:53:01;;;;;;;3.27;2.97;;;19.00;99.90;;;;;;4965180;28;20490;-85
2023/07/31 06:55:30;;;;;;;4.03;3.27;;;19.10;99.90;;;;;;5402737;23;20510;-84
2023/07/31 06:57:58;;;;;;;5.33;3.20;;;19.20;99.90;;;;;;4975382;28;20526;-84
2023/07/31 07:00:36;;;;;;;6.57;3.70;;;19.20;99.90;;;;;;4967976;28;20485;-86
2023/07/31 07:03:04;;;;;;;4.80;3.33;;;19.20;99.90;;;;;;4959766;28;20549;-86
2023/07/31 07:05:42;;;;;;;5.30;3.37;;;19.30;99.90;;;;;;4966596;28;20976;-86
2023/07/31 07:08:14;;;;;;;3.23;2.97;;;19.40;99.90;;;;;;4976791;28;20490;-86
2023/07/31 07:10:46;;;;;;;4.10;2.57;;;19.40;99.90;;;;;;4976217;28;20459;-86
2023/07/31 07:16:03;;;;;;;2.60;2.27;;;19.40;99.90;;;;;;5043248;23;20455;-86
2023/07/31 07:18:31;;;;;;;3.80;3.40;;;19.50;99.90;;;;;;4967490;28;20809;-85
2023/07/31 07:21:02;;;;;;;4.20;3.13;;;19.50;99.90;;;;;;4968109;28;20470;-85
2023/07/31 07:23:31;;;;;;;4.30;3.20;;;19.40;99.90;;;;;;4975746;28;20471;-83
2023/07/31 07:26:00;;;;;;;3.37;2.70;;;19.40;99.90;;;;;;4957071;29;20506;-83
2023/07/31 07:28:28;;;;;;;7.03;2.60;;;19.30;99.90;;;;;;4937300;29;20494;-85
2023/07/31 07:30:55;;;;;;;3.10;2.60;;;19.40;99.90;;;;;;4956115;29;20567;-86
2023/07/31 07:33:22;;;;;;;4.03;2.40;;;19.40;99.90;;;;;;4956378;29;20827;-85
2023/07/31 07:35:53;;;;;;;2.63;2.17;;;19.40;99.90;;;;;;4955055;28;20486;-83
2023/07/31 07:38:20;;;;;;;3.40;3.00;;;19.40;99.90;;;;;;4946955;29;20483;-85
2023/07/31 07:40:50;;;;;;;2.93;2.73;;;19.40;99.90;;;;;;4954886;29;20490;-83
2023/07/31 07:43:17;;;;;;;3.57;2.87;;;19.50;99.90;;;;;;4956805;29;20548;-83
2023/07/31 07:45:51;;;;;;;3.80;2.97;;;19.50;99.90;;;;;;4956136;28;20962;-83
2023/07/31 07:48:18;;;;;;;3.33;2.50;;;19.50;99.90;;;;;;4955356;29;20542;-83
2023/07/31 07:50:48;;;;;;;4.50;2.93;;;19.60;99.90;;;;;;4956148;29;20456;-87
2023/07/31 07:53:19;;;;;;;3.37;2.90;;;19.60;99.90;;;;;;4956002;29;20491;-87
2023/07/31 07:55:46;;;;;;;3.13;2.80;;;19.60;99.90;;;;;;4955677;28;20463;-86
2023/07/31 07:58:13;;;;;;;5.80;3.10;;;19.70;99.90;;;;;;4955548;29;20563;-87
2023/07/31 08:00:50;;;;;;;6.00;3.33;;;19.70;99.90;;;;;;4955761;29;20508;-86
2023/07/31 08:06:01;;;;;;;2.60;2.40;;;19.70;99.90;;;;;;5271458;23;20513;-86
2023/07/31 08:08:32;;;;;;;3.50;2.93;;;19.70;99.90;;;;;;4994012;28;20476;-85
2023/07/31 08:10:59;;;;;;;4.00;2.73;;;19.60;99.90;;;;;;4994598;28;20474;-83
2023/07/31 08:13:26;;;;;;;2.57;2.37;;;19.60;99.90;;;;;;4983445;28;20498;-86
2023/07/31 08:15:57;;;;;;;4.50;2.23;;;19.60;99.90;;;;;;4984192;28;20536;-87
2023/07/31 08:18:24;;;;;;;3.63;2.57;;;19.60;99.90;;;;;;5000747;28;20503;-83
2023/07/31 08:20:51;;;;;;;2.50;2.40;;;19.60;99.90;;;;;;4994908;28;20469;-84
2023/07/31 08:23:18;;;;;;;2.17;1.87;;;19.50;99.90;;;;;;4994471;28;20540;-85
2023/07/31 08:25:49;;;;;;;3.40;2.60;;;19.60;99.90;;;;;;4993801;28;20521;-85
2023/07/31 08:28:18;;;;;;;4.50;2.60;;;19.50;99.90;;;;;;4994248;28;20536;-85
2023/07/31 08:30:46;;;;;;;4.63;2.43;;;19.50;99.90;;;;;;4993654;28;20828;-85
2023/07/31 08:33:15;;;;;;;4.00;2.53;;;19.50;99.90;;;;;;4993769;28;20533;-85
2023/07/31 08:35:42;;;;;;;2.47;2.27;;;19.50;99.90;;;;;;4993729;28;20863;-83
2023/07/31 08:38:11;;;;;;;3.10;2.10;;;19.40;99.90;;;;;;4982480;28;20564;-83
2023/07/31 08:40:38;;;;;;;2.80;1.90;;;19.40;99.90;;;;;;4993880;28;20858;-85
2023/07/31 08:43:07;;;;;;;2.57;2.37;;;19.40;99.90;;;;;;4994442;28;20795;-83
2023/07/31 08:45:36;;;;;;;3.50;2.97;;;19.40;99.90;;;;;;4993781;28;20502;-83
2023/07/31 08:48:10;;;;;;;3.50;3.20;;;19.50;99.90;;;;;;4993860;28;20485;-86
2023/07/31 08:50:39;;;;;;;4.27;3.07;;;19.50;99.90;;;;;;4994084;28;20474;-82
2023/07/31 08:55:52;;;;;;;3.17;2.90;;;19.50;99.90;;;;;;4986632;28;20537;-86
2023/07/31 08:58:31;;;;;;;2.57;2.27;;;19.60;99.90;;;;;;4996937;28;20528;-84
2023/07/31 09:01:04;;;;;;;5.50;2.80;;;19.60;99.90;;;;;;5003499;28;20441;-85
2023/07/31 09:03:48;;;;;;;3.10;2.90;;;19.70;99.90;;;;;;5013106;28;20493;-85
2023/07/31 09:06:19;;;;;;;2.00;1.90;;;19.70;99.90;;;;;;4995935;28;20470;-84
2023/07/31 09:08:47;;;;;;;6.43;3.27;;;19.60;99.90;;;;;;4977169;28;20483;-85
2023/07/31 09:11:19;;;;;;;2.80;2.57;;;19.70;99.90;;;;;;4975059;28;20494;-84
2023/07/31 09:13:51;;;;;;;3.20;2.70;;;19.70;99.90;;;;;;4973466;28;20491;-86
2023/07/31 09:16:18;;;;;;;2.70;2.50;;;19.70;99.90;;;;;;4963553;28;20586;-86
2023/07/31 09:18:56;;;;;;;4.73;4.10;;;19.80;99.90;;;;;;4974356;28;20506;-84
2023/07/31 09:21:28;;;;;;;4.20;3.60;;;19.80;99.90;;;;;;4967963;28;20960;-85
2023/07/31 09:23:55;;;;;;;3.30;2.70;;;19.80;99.90;;;;;;4964072;28;20534;-83
2023/07/31 09:26:43;;;;;;;4.87;3.17;;;19.80;99.90;;;;;;4973871;28;20479;-84
2023/07/31 09:29:20;;;;;;;2.50;2.30;;;19.90;99.90;;;;;;4953967;28;20479;-84
2023/07/31 09:31:48;;;;;;;3.67;2.07;;;19.90;99.90;;;;;;4976299;28;20549;-86
2023/07/31 09:34:17;;;;;;;2.40;2.20;;;19.90;99.90;;;;;;4977443;28;20503;-85
2023/07/31 09:36:44;;;;;;;2.83;2.10;;;19.80;99.90;;;;;;4977548;28;20477;-86
2023/07/31 09:39:13;;;;;;;2.63;2.43;;;19.80;99.90;;;;;;4982203;28;20474;-85
2023/07/31 09:41:46;;;;;;;1.97;1.77;;;19.80;99.90;;;;;;4983156;28;20494;-86
2023/07/31 09:44:17;;;;;;;2.10;1.90;;;19.70;99.90;;;;;;4980686;28;20557;-85
2023/07/31 09:46:43;;;;;;;1.77;1.67;;;19.80;99.90;;;;;;4980256;28;20506;-83
2023/07/31 09:49:12;;;;;;;1.83;1.73;;;19.70;99.90;;;;;;4978954;28;20451;-84
2023/07/31 09:51:40;;;;;;;1.60;1.50;;;19.70;99.90;;;;;;4977226;28;20467;-85
2023/07/31 09:54:16;;;;;;;3.23;1.60;;;19.70;99.90;;;;;;4978054;28;20807;-86
2023/07/31 09:56:45;;;;;;;1.83;1.73;;;19.70;99.90;;;;;;4951312;28;20466;-83
2023/07/31 09:59:16;;;;;;;3.20;2.10;;;19.70;99.90;;;;;;4977489;28;20502;-84
2023/07/31 10:01:45;;;;;;;3.43;2.40;;;19.80;99.90;;;;;;4977063;28;20817;-84
2023/07/31 10:04:13;;;;;;;1.47;1.37;;;19.80;99.90;;;;;;4977132;28;20510;-84
2023/07/31 10:06:43;;;;;;;1.87;1.77;;;19.70;99.90;;;;;;4990324;28;21018;-86
2023/07/31 10:09:17;;;;;;;3.00;1.77;;;19.70;99.90;;;;;;4996965;28;20473;-83
2023/07/31 10:11:50;;;;;;;1.90;1.73;;;19.70;99.90;;;;;;4996262;28;20481;-85
2023/07/31 10:14:21;;;;;;;3.30;2.10;;;19.70;99.90;;;;;;4996719;28;20498;-83
2023/07/31 10:16:51;;;;;;;2.30;2.10;;;19.80;99.90;;;;;;4987886;28;20477;-83
2023/07/31 10:19:19;;;;;;;3.50;2.03;;;19.80;99.90;;;;;;4997175;28;20496;-84
2023/07/31 10:21:47;;;;;;;2.40;2.20;;;19.90;99.90;;;;;;4986389;28;20924;-85
2023/07/31 10:24:26;;;;;;;3.60;3.00;;;19.90;99.90;;;;;;4997129;28;20485;-84
2023/07/31 10:26:57;;;;;;;4.80;2.90;;;19.90;99.90;;;;;;4996162;28;20824;-85
2023/07/31 10:29:26;;;;;;;3.23;2.93;;;19.90;99.90;;;;;;4984547;28;20489;-86
2023/07/31 10:31:54;;;;;;;4.60;3.20;;;19.90;99.90;;;;;;4995900;28;20473;-84
2023/07/31 10:34:35;;;;;;;5.10;3.73;;;19.90;99.90;;;;;;4996188;28;20503;-84
2023/07/31 10:37:27;;;;;;;3.63;2.63;;;19.90;99.90;;;;;;4986924;28;20787;-84
2023/07/31 10:39:59;;;;;;;4.27;3.50;;;19.90;99.90;;;;;;4917429;28;20975;-86
2023/07/31 10:42:42;;;;;;;4.60;4.17;;;19.90;99.90;;;;;;4984046;28;20509;-84
2023/07/31 10:45:11;;;;;;;5.03;3.83;;;19.90;99.90;;;;;;4994530;28;20473;-84
2023/07/31 10:47:39;;;;;;;4.63;3.50;;;20.00;99.90;;;;;;4995973;28;20470;-85
2023/07/31 10:50:23;;;;;;;6.43;3.80;;;20.00;99.90;;;;;;4995126;28;20967;-83
2023/07/31 10:52:53;;;;;;;3.23;2.80;;;20.10;99.90;;;;;;4994915;28;20484;-86
2023/07/31 10:55:32;;;;;;;4.80;4.13;;;20.20;99.90;;;;;;4995186;28;20558;-84
2023/07/31 10:58:09;;;;;;;5.17;4.50;;;20.30;99.90;;;;;;4995469;28;20489;-83
2023/07/31 11:00:44;;;;;;;4.80;4.40;;;20.40;99.90;;;;;;4996137;28;20474;-84
2023/07/31 11:03:12;;;;;;;6.00;4.00;;;20.50;99.90;;;;;;4975517;28;20474;-83
2023/07/31 11:05:53;;;;;;;4.03;3.63;;;20.60;99.90;;;;;;4975942;28;20522;-86
2023/07/31 11:08:22;;;;;;;3.70;3.20;;;20.60;99.90;;;;;;4965179;28;20479;-83
2023/07/31 11:11:17;;;;;;;3.47;3.17;;;20.70;99.90;;;;;;4975591;28;20784;-84
2023/07/31 11:13:50;;;;;;;5.27;4.47;;;20.80;99.90;;;;;;4965417;28;20486;-86
2023/07/31 11:16:20;;;;;;;5.30;3.97;;;20.90;99.90;;;;;;4976236;28;20550;-86
2023/07/31 11:18:48;;;;;;;5.23;3.97;;;21.00;99.90;;;;;;4976064;28;20765;-84
2023/07/31 11:21:16;;;;;;;4.40;3.40;;;21.10;99.90;;;;;;4977237;28;21013;-84
2023/07/31 11:26:51;;;;;;;4.50;4.03;;;21.20;99.90;;;;;;4964350;28;20474;-83
2023/07/31 11:29:21;;;;;;;5.57;4.00;;;21.20;99.90;;;;;;4983283;28;20526;-86
2023/07/31 11:31:50;;;;;;;4.10;3.63;;;21.30;99.90;;;;;;4992690;28;20475;-85
2023/07/31 11:34:20;;;;;;;4.30;4.00;;;21.30;99.90;;;;;;4993892;28;20498;-85
2023/07/31 11:36:54;;;;;;;7.93;4.80;;;21.40;99.90;;;;;;4979480;28;20491;-85
2023/07/31 11:39:24;;;;;;;4.23;3.83;;;21.40;99.90;;;;;;4978143;28;20613;-84
2023/07/31 11:41:51;;;;;;;3.43;3.13;;;21.40;99.90;;;;;;4966992;28;20944;-86
2023/07/31 11:44:24;;;;;;;5.03;4.10;;;21.40;99.90;;;;;;4977222;28;20475;-83
2023/07/31 11:46:58;;;;;;;4.43;3.70;;;21.40;99.90;;;;;;4975966;28;20461;-84
2023/07/31 11:49:28;;;;;;;3.70;3.40;;;21.50;99.90;;;;;;4976089;28;20475;-84
2023/07/31 11:51:59;;;;;;;3.93;3.50;;;21.40;99.90;;;;;;4965016;28;20466;-86
2023/07/31 11:54:26;;;;;;;6.77;4.83;;;21.40;99.90;;;;;;4975249;28;20471;-86
2023/07/31 11:56:54;;;;;;;4.33;3.93;;;21.50;99.90;;;;;;4975004;28;20822;-84
2023/07/31 11:59:27;;;;;;;3.73;3.43;;;21.50;99.90;;;;;;4957501;28;20510;-86
2023/07/31 12:01:55;;;;;;;3.90;3.60;;;21.50;99.90;;;;;;4964513;28;21095;-86
2023/07/31 12:04:26;;;;;;;6.20;4.20;;;21.60;99.90;;;;;;4974434;28;20486;-83
2023/07/31 12:06:54;;;;;;;4.60;4.20;;;21.60;99.90;;;;;;4992710;28;20816;-83
2023/07/31 12:09:23;;;;;;;6.30;5.70;;;21.60;99.90;;;;;;4994946;28;20553;-85
2023/07/31 12:11:52;;;;;;;5.37;4.77;;;21.50;99.90;;;;;;4994138;28;20470;-86
2023/07/31 12:14:22;;;;;;;5.50;4.30;;;21.50;99.90;;;;;;4994822;28;20478;-86
2023/07/31 12:16:53;;;;;;;4.27;3.87;;;21.50;99.90;;;;;;4983803;28;20470;-86
2023/07/31 12:19:23;;;;;;;4.67;4.00;;;21.60;99.90;;;;;;4994177;28;20548;-86
2023/07/31 12:21:50;;;;;;;3.83;3.43;;;21.60;99.90;;;;;;4994484;28;20474;-86
2023/07/31 12:24:19;;;;;;;5.87;4.10;;;21.60;99.90;;;;;;4991569;28;20466;-84
2023/07/31 12:26:47;;;;;;;5.70;3.77;;;21.70;99.90;;;;;;4993613;28;20528;-86
2023/07/31 12:29:14;;;;;;;3.90;3.60;;;21.80;99.90;;;;;;4983807;28;20485;-83
2023/07/31 12:31:45;;;;;;;4.30;2.83;;;21.80;99.90;;;;;;4993946;28;20473;-83
2023/07/31 12:34:21;;;;;;;3.90;3.60;;;21.90;99.90;;;;;;4980415;28;20487;-84
2023/07/31 12:36:50;;;;;;;3.40;3.10;;;21.90;99.90;;;;;;4995013;28;20853;-86
2023/07/31 12:39:17;;;;;;;7.63;5.30;;;22.00;99.90;;;;;;4993826;28;20485;-85
2023/07/31 12:41:44;;;;;;;9.63;4.90;;;22.00;99.90;;;;;;4993266;28;20478;-85
2023/07/31 12:44:11;;;;;;;4.33;3.43;;;22.00;99.90;;;;;;4994419;28;20478;-85
2023/07/31 12:46:38;;;;;;;4.80;3.67;;;22.00;99.90;;;;;;4994090;28;20497;-82
2023/07/31 12:49:08;;;;;;;4.90;3.03;;;22.10;99.90;;;;;;4994597;28;20466;-85
2023/07/31 12:51:35;;;;;;;3.57;3.20;;;22.10;99.90;;;;;;4994028;28;21023;-83
2023/07/31 12:54:05;;;;;;;3.13;2.73;;;22.10;99.90;;;;;;4994663;28;20955;-86
2023/07/31 12:56:33;;;;;;;3.47;3.17;;;22.20;99.90;;;;;;4994031;28;20489;-85
2023/07/31 12:59:00;;;;;;;4.20;3.80;;;22.20;99.90;;;;;;4994201;28;20537;-86
2023/07/31 13:01:27;;;;;;;3.20;2.90;;;22.30;99.90;;;;;;4994551;28;20478;-85
2023/07/31 13:06:29;;;;;;;3.80;3.50;;;22.30;99.90;;;;;;5009004;23;20458;-84
2023/07/31 13:08:56;;;;;;;3.50;3.20;;;22.30;99.90;;;;;;4994365;28;20514;-86
2023/07/31 13:11:24;;;;;;;3.20;2.47;;;22.30;99.90;;;;;;4994147;28;20972;-86
2023/07/31 13:14:17;;;;;;;3.37;2.40;;;22.20;99.90;;;;;;4980813;28;20470;-84
2023/07/31 13:16:44;;;;;;;2.40;2.20;;;22.20;99.90;;;;;;4991349;28;20489;-83